createdAt,value
2019-05-18T00:01:07.629Z,16.77
2019-05-18T00:03:37.239Z,16.30
2019-05-18T00:06:07.028Z,17.27
2019-05-18T00:08:36.571Z,16.50
2019-05-18T00:11:06.242Z,16.53
2019-05-18T00:13:35.816Z,16.57
2019-05-18T00:16:05.380Z,16.87
2019-05-18T00:18:34.941Z,17.03
2019-05-18T00:21:04.530Z,17.23
2019-05-18T00:23:34.000Z,16.33
2019-05-18T00:26:03.616Z,16.83
2019-05-18T00:28:33.172Z,17.03
2019-05-18T00:31:02.758Z,17.80
2019-05-18T00:33:32.346Z,16.13
2019-05-18T00:36:01.917Z,18.10
2019-05-18T00:38:31.485Z,16.23
2019-05-18T00:41:01.015Z,18.73
2019-05-18T00:43:30.486Z,19.97
2019-05-18T00:46:00.004Z,18.50
2019-05-18T00:48:29.522Z,20.33
2019-05-18T00:50:59.032Z,17.67
2019-05-18T00:53:28.591Z,17.77
2019-05-18T00:55:58.137Z,19.63
2019-05-18T00:58:28.070Z,19.93
2019-05-18T01:00:57.715Z,16.90
2019-05-18T01:03:27.257Z,19.70
2019-05-18T01:05:56.881Z,18.23
2019-05-18T01:08:26.359Z,20.33
2019-05-18T01:10:55.947Z,20.00
2019-05-18T01:13:26.827Z,20.27
2019-05-18T01:15:56.297Z,18.23
2019-05-18T01:18:25.771Z,20.77
2019-05-18T01:20:55.240Z,21.63
2019-05-18T01:23:24.750Z,22.50
2019-05-18T01:25:54.240Z,19.20
2019-05-18T01:28:23.812Z,21.10
2019-05-18T01:30:53.292Z,18.43
2019-05-18T01:33:22.801Z,22.13
2019-05-18T01:35:54.147Z,22.03
2019-05-18T01:38:23.636Z,20.67
2019-05-18T01:40:53.126Z,21.63
2019-05-18T01:43:22.598Z,22.03
2019-05-18T01:45:52.065Z,20.50
2019-05-18T01:48:21.568Z,20.77
2019-05-18T01:50:51.103Z,19.63
2019-05-18T01:53:20.608Z,19.67
2019-05-18T01:55:50.072Z,24.03
2019-05-18T01:58:19.548Z,22.10
2019-05-18T02:00:48.998Z,21.00
2019-05-18T02:03:18.549Z,20.00
2019-05-18T02:05:48.172Z,23.30
2019-05-18T02:08:17.643Z,20.37
2019-05-18T02:10:47.125Z,19.60
2019-05-18T02:13:16.628Z,22.87
2019-05-18T02:15:46.163Z,21.80
2019-05-18T02:18:28.322Z,22.10
2019-05-18T02:20:46.843Z,24.17
2019-05-18T02:23:16.398Z,19.30
2019-05-18T02:25:45.899Z,22.23
2019-05-18T02:28:15.503Z,24.47
2019-05-18T02:30:45.014Z,22.87
2019-05-18T02:33:14.520Z,20.70
2019-05-18T02:35:43.980Z,21.93
2019-05-18T02:38:16.692Z,22.80
2019-05-18T02:40:47.386Z,23.03
2019-05-18T02:43:17.460Z,26.63
2019-05-18T02:45:46.964Z,21.47
2019-05-18T02:48:16.658Z,21.57
2019-05-18T02:50:46.198Z,23.47
2019-05-18T02:53:15.768Z,26.60
2019-05-18T02:55:45.294Z,24.30
2019-05-18T02:58:14.791Z,24.40
2019-05-18T03:00:44.415Z,24.83
2019-05-18T03:03:14.015Z,25.37
2019-05-18T03:05:44.308Z,26.33
2019-05-18T03:08:13.851Z,24.67
2019-05-18T03:10:43.510Z,27.33
2019-05-18T03:13:13.103Z,24.67
2019-05-18T03:15:42.735Z,24.27
2019-05-18T03:18:12.278Z,25.07
2019-05-18T03:20:41.775Z,26.80
2019-05-18T03:23:11.369Z,28.20
2019-05-18T03:25:41.122Z,31.57
2019-05-18T03:28:10.653Z,23.43
2019-05-18T03:30:40.199Z,28.97
2019-05-18T03:33:09.966Z,29.27
2019-05-18T03:35:39.759Z,27.30
2019-05-18T03:38:09.357Z,26.93
2019-05-18T03:40:38.893Z,28.30
2019-05-18T03:43:08.439Z,25.17
2019-05-18T03:45:37.920Z,26.43
2019-05-18T03:48:07.591Z,24.73
2019-05-18T03:50:37.181Z,26.80
2019-05-18T03:53:06.733Z,26.07
2019-05-18T03:55:36.270Z,28.33
2019-05-18T03:58:05.716Z,26.70
2019-05-18T04:00:35.284Z,27.37
2019-05-18T04:03:04.838Z,28.23
2019-05-18T04:05:34.322Z,33.00
2019-05-18T04:08:03.800Z,31.60
2019-05-18T04:10:33.307Z,28.50
2019-05-18T04:13:02.912Z,31.17
2019-05-18T04:15:32.424Z,30.53
2019-05-18T04:18:02.150Z,27.80
2019-05-18T04:20:31.650Z,30.73
2019-05-18T04:23:01.148Z,32.27
2019-05-18T04:25:30.692Z,28.87
2019-05-18T04:28:00.223Z,29.47
2019-05-18T04:30:29.728Z,32.03
2019-05-18T04:32:59.215Z,32.90
2019-05-18T04:35:28.759Z,32.07
2019-05-18T04:37:58.324Z,36.10
2019-05-18T04:40:27.868Z,33.33
2019-05-18T04:42:57.348Z,33.20
2019-05-18T04:45:26.913Z,35.60
2019-05-18T04:47:56.418Z,33.30
2019-05-18T04:50:25.911Z,34.83
2019-05-18T04:52:55.410Z,32.93
2019-05-18T04:55:25.028Z,37.60
2019-05-18T04:57:54.567Z,36.23
2019-05-18T05:00:24.385Z,35.73
2019-05-18T05:02:53.951Z,34.20
2019-05-18T05:05:23.505Z,35.60
2019-05-18T05:07:53.063Z,36.67
2019-05-18T05:10:22.644Z,33.73
2019-05-18T05:12:52.218Z,34.33
2019-05-18T05:15:21.789Z,31.83
2019-05-18T05:17:51.327Z,32.50
2019-05-18T05:20:20.898Z,30.63
2019-05-18T05:22:50.381Z,33.40
2019-05-18T05:25:19.870Z,32.13
2019-05-18T05:27:49.425Z,34.33
2019-05-18T05:30:19.097Z,33.07
2019-05-18T05:32:48.647Z,32.13
2019-05-18T05:35:18.136Z,31.83
2019-05-18T05:37:47.787Z,32.20
2019-05-18T05:40:17.353Z,31.33
2019-05-18T05:42:46.859Z,33.87
2019-05-18T05:45:16.488Z,29.43
2019-05-18T05:47:45.987Z,31.40
2019-05-18T05:50:15.681Z,31.57
2019-05-18T05:52:45.236Z,28.33
2019-05-18T05:55:15.153Z,27.90
2019-05-18T05:57:44.768Z,26.33
2019-05-18T06:00:14.587Z,28.50
2019-05-18T06:02:44.112Z,28.17
2019-05-18T06:05:13.888Z,23.30
2019-05-18T06:07:43.368Z,24.23
2019-05-18T06:10:13.203Z,25.67
2019-05-18T06:12:42.693Z,23.10
2019-05-18T06:15:12.540Z,22.17
2019-05-18T06:17:42.232Z,22.00
2019-05-18T06:20:12.111Z,19.93
2019-05-18T06:22:41.675Z,18.87
2019-05-18T06:25:11.610Z,20.27
2019-05-18T06:27:41.073Z,26.40
2019-05-18T06:30:11.049Z,16.13
2019-05-18T06:32:40.599Z,17.73
2019-05-18T06:35:10.416Z,17.97
2019-05-18T06:37:39.970Z,16.13
2019-05-18T06:40:28.749Z,14.57
2019-05-18T06:42:58.195Z,14.33
2019-05-18T06:45:27.758Z,14.37
2019-05-18T06:47:57.284Z,12.97
2019-05-18T06:50:31.169Z,14.80
2019-05-18T06:53:01.458Z,12.03
2019-05-18T06:55:31.703Z,15.27
2019-05-18T06:58:01.990Z,12.47
2019-05-18T07:00:31.626Z,12.57
2019-05-18T07:03:01.124Z,13.03
2019-05-18T07:05:30.623Z,9.67
2019-05-18T07:08:00.187Z,10.37
2019-05-18T07:10:29.781Z,11.53
2019-05-18T07:12:59.415Z,13.23
2019-05-18T07:15:28.953Z,11.73
2019-05-18T07:17:58.502Z,10.90
2019-05-18T07:20:27.987Z,12.23
2019-05-18T07:22:57.915Z,13.07
2019-05-18T07:25:27.407Z,14.70
2019-05-18T07:27:56.911Z,9.63
2019-05-18T07:30:26.458Z,13.13
2019-05-18T07:32:56.076Z,9.70
2019-05-18T07:35:25.726Z,11.27
2019-05-18T07:37:55.208Z,12.23
2019-05-18T07:40:24.699Z,10.17
2019-05-18T07:42:54.166Z,13.37
2019-05-18T07:45:23.619Z,10.03
2019-05-18T07:47:53.348Z,9.83
2019-05-18T07:50:22.912Z,11.90
2019-05-18T07:52:52.549Z,11.17
2019-05-18T07:55:22.103Z,13.13
2019-05-18T07:57:51.793Z,8.77
2019-05-18T08:00:21.534Z,9.63
2019-05-18T08:02:51.014Z,9.00
2019-05-18T08:05:20.637Z,8.53
2019-05-18T08:07:50.352Z,8.27
2019-05-18T08:10:33.811Z,8.93
2019-05-18T08:13:03.409Z,9.60
2019-05-18T08:15:32.918Z,7.93
2019-05-18T08:18:02.648Z,7.73
2019-05-18T08:20:32.320Z,8.20
2019-05-18T08:23:02.054Z,7.13
2019-05-18T08:25:31.711Z,8.07
2019-05-18T08:28:01.456Z,8.07
2019-05-18T08:30:31.757Z,8.13
2019-05-18T08:33:01.242Z,8.47
2019-05-18T08:35:30.775Z,9.23
2019-05-18T08:38:00.653Z,9.10
2019-05-18T08:40:30.359Z,12.70
2019-05-18T08:43:00.073Z,8.60
2019-05-18T08:45:29.748Z,8.83
2019-05-18T08:47:59.321Z,10.23
2019-05-18T08:50:28.849Z,7.50
2019-05-18T08:52:58.541Z,6.83
2019-05-18T08:55:28.123Z,9.30
2019-05-18T08:57:57.669Z,8.93
2019-05-18T09:00:27.406Z,8.90
2019-05-18T09:02:56.970Z,7.17
2019-05-18T09:05:26.761Z,8.67
2019-05-18T09:07:56.312Z,10.27
2019-05-18T09:10:25.816Z,7.93
2019-05-18T09:12:55.372Z,11.63
2019-05-18T09:15:25.072Z,8.50
2019-05-18T09:17:54.659Z,8.57
2019-05-18T09:20:24.298Z,7.83
2019-05-18T09:22:53.857Z,6.00
2019-05-18T09:25:24.069Z,6.80
2019-05-18T09:27:53.630Z,6.70
2019-05-18T09:30:23.373Z,7.33
2019-05-18T09:32:53.109Z,15.67
2019-05-18T09:35:22.834Z,8.03
2019-05-18T09:37:52.866Z,5.80
2019-05-18T09:40:22.773Z,5.50
2019-05-18T09:42:53.611Z,5.23
2019-05-18T09:45:23.377Z,6.13
2019-05-18T09:47:53.047Z,6.83
2019-05-18T09:50:22.680Z,6.70
2019-05-18T09:52:52.339Z,8.60
2019-05-18T09:55:22.120Z,7.77
2019-05-18T09:57:51.607Z,6.93
2019-05-18T10:00:21.892Z,7.27
2019-05-18T10:02:51.541Z,7.10
2019-05-18T10:05:21.141Z,7.77
2019-05-18T10:07:50.882Z,6.67
2019-05-18T10:10:20.765Z,5.30
2019-05-18T10:12:50.258Z,4.90
2019-05-18T10:15:20.085Z,8.80
2019-05-18T10:17:49.799Z,5.47
2019-05-18T10:20:19.527Z,5.80
2019-05-18T10:23:11.397Z,7.73
2019-05-18T10:25:26.707Z,6.17
2019-05-18T10:27:56.324Z,6.77
2019-05-18T10:30:25.922Z,7.00
2019-05-18T10:32:55.625Z,5.13
2019-05-18T10:35:26.534Z,6.27
2019-05-18T10:37:56.315Z,5.80
2019-05-18T10:40:26.061Z,8.90
2019-05-18T10:42:55.724Z,6.33
2019-05-18T10:45:25.319Z,6.93
2019-05-18T10:47:54.818Z,7.03
2019-05-18T10:50:24.530Z,5.83
2019-05-18T10:52:54.071Z,7.50
2019-05-18T10:55:23.714Z,6.00
2019-05-18T10:57:56.318Z,5.67
2019-05-18T11:00:25.968Z,7.63
2019-05-18T11:02:55.511Z,5.07
2019-05-18T11:05:25.282Z,5.50
2019-05-18T11:07:54.788Z,5.40
2019-05-18T11:10:24.759Z,5.37
2019-05-18T11:12:54.228Z,4.73
2019-05-18T11:15:24.203Z,5.57
2019-05-18T11:17:53.941Z,4.93
2019-05-18T11:20:24.084Z,5.77
2019-05-18T11:22:53.906Z,4.60
2019-05-18T11:25:23.613Z,4.60
2019-05-18T11:27:53.214Z,3.83
2019-05-18T11:30:23.182Z,7.20
2019-05-18T11:32:52.923Z,4.40
2019-05-18T11:35:22.837Z,4.37
2019-05-18T11:37:52.528Z,3.73
2019-05-18T11:40:22.321Z,5.20
2019-05-18T11:42:51.857Z,4.30
2019-05-18T11:45:22.049Z,5.57
2019-05-18T11:47:51.537Z,4.50
2019-05-18T11:50:22.556Z,4.20
2019-05-18T11:52:52.422Z,4.60
2019-05-18T11:55:23.782Z,4.00
2019-05-18T11:57:53.350Z,4.50
2019-05-18T12:00:24.756Z,3.93
2019-05-18T12:02:54.307Z,4.80
2019-05-18T12:05:23.872Z,4.77
2019-05-18T12:07:53.726Z,4.30
2019-05-18T12:10:23.369Z,5.93
2019-05-18T12:12:52.985Z,4.13
2019-05-18T12:15:23.365Z,4.80
2019-05-18T12:17:53.043Z,3.57
2019-05-18T12:20:22.895Z,4.10
2019-05-18T12:22:53.078Z,4.00
2019-05-18T12:25:24.169Z,3.00
2019-05-18T12:27:53.845Z,4.17
2019-05-18T12:30:25.218Z,3.90
2019-05-18T12:35:36.287Z,2.70
2019-05-18T12:38:06.452Z,4.00
2019-05-18T12:40:36.163Z,5.20
2019-05-18T12:43:05.831Z,3.00
2019-05-18T12:45:35.930Z,4.40
2019-05-18T12:48:05.632Z,3.23
2019-05-18T12:50:36.502Z,3.13
2019-05-18T12:53:08.212Z,3.27
2019-05-18T12:55:40.146Z,3.47
2019-05-18T12:58:15.564Z,3.97
2019-05-18T13:00:49.816Z,2.90
2019-05-18T13:03:21.437Z,3.57
2019-05-18T13:05:51.964Z,3.47
2019-05-18T13:08:24.412Z,3.97
2019-05-18T13:10:54.131Z,3.10
2019-05-18T13:13:23.768Z,3.13
2019-05-18T13:15:53.308Z,2.60
2019-05-18T13:18:22.824Z,2.97
2019-05-18T13:20:52.499Z,2.87
2019-05-18T13:23:22.084Z,2.53
2019-05-18T13:25:51.638Z,3.50
2019-05-18T13:28:21.495Z,2.50
2019-05-18T13:30:51.497Z,2.47
2019-05-18T13:33:21.009Z,2.13
2019-05-18T13:35:50.653Z,3.70
2019-05-18T13:38:20.125Z,2.83
2019-05-18T13:40:49.745Z,2.87
2019-05-18T13:43:19.281Z,5.30
2019-05-18T13:45:48.826Z,2.50
2019-05-18T13:48:18.373Z,2.83
2019-05-18T13:50:48.000Z,2.20
2019-05-18T13:53:17.709Z,3.20
2019-05-18T13:55:47.387Z,2.60
2019-05-18T13:58:17.180Z,2.77
2019-05-18T14:00:46.776Z,5.20
2019-05-18T14:03:29.077Z,3.00
2019-05-18T14:06:01.156Z,2.97
2019-05-18T14:08:31.034Z,2.60
2019-05-18T14:11:00.512Z,2.20
2019-05-18T14:13:30.142Z,3.27
2019-05-18T14:16:00.507Z,4.23
2019-05-18T14:18:30.174Z,3.20
2019-05-18T14:20:59.825Z,2.70
2019-05-18T14:23:29.449Z,2.63
2019-05-18T14:26:00.275Z,3.33
2019-05-18T14:29:07.734Z,3.77
2019-05-18T14:31:35.790Z,2.33
2019-05-18T14:34:05.772Z,2.47
2019-05-18T14:36:35.491Z,2.90
2019-05-18T14:39:07.142Z,3.23
2019-05-18T14:41:36.774Z,2.73
2019-05-18T14:44:06.663Z,2.43
2019-05-18T14:46:36.330Z,3.60
2019-05-18T14:49:05.870Z,3.13
2019-05-18T14:51:35.545Z,5.03
2019-05-18T14:54:05.107Z,3.17
2019-05-18T14:56:34.954Z,4.87
2019-05-18T14:59:04.713Z,2.47
2019-05-18T15:01:34.237Z,4.73
2019-05-18T15:04:04.159Z,2.50
2019-05-18T15:06:33.594Z,2.57
2019-05-18T15:09:03.857Z,2.90
2019-05-18T15:11:33.348Z,2.57
2019-05-18T15:14:02.974Z,2.57
2019-05-18T15:16:32.537Z,2.30
2019-05-18T15:19:02.082Z,6.20
2019-05-18T15:21:31.683Z,2.67
2019-05-18T15:24:01.301Z,2.63
2019-05-18T15:26:30.841Z,3.00
2019-05-18T15:29:00.419Z,3.90
2019-05-18T15:31:29.933Z,4.43
2019-05-18T15:33:59.515Z,2.50
2019-05-18T15:36:29.127Z,2.47
2019-05-18T15:38:58.709Z,2.83
2019-05-18T15:41:28.175Z,3.10
2019-05-18T15:43:57.710Z,3.10
2019-05-18T15:46:27.266Z,2.70
2019-05-18T15:48:56.999Z,2.63
2019-05-18T15:51:26.720Z,2.77
2019-05-18T15:53:56.345Z,3.13
2019-05-18T15:56:25.924Z,3.03
2019-05-18T15:58:55.782Z,3.00
2019-05-18T16:01:25.512Z,4.27
2019-05-18T16:03:55.168Z,2.87
2019-05-18T16:06:24.911Z,3.00
2019-05-18T16:08:54.990Z,5.00
2019-05-18T16:11:27.030Z,3.07
2019-05-18T16:13:57.107Z,2.73
2019-05-18T16:16:26.684Z,5.90
2019-05-18T16:18:56.456Z,4.07
2019-05-18T16:21:26.086Z,4.47
2019-05-18T16:23:58.747Z,3.30
2019-05-18T16:26:28.476Z,3.20
2019-05-18T16:28:58.108Z,4.43
2019-05-18T16:31:27.605Z,3.70
2019-05-18T16:33:57.264Z,2.70
2019-05-18T16:36:27.316Z,2.70
2019-05-18T16:38:56.989Z,3.07
2019-05-18T16:41:26.627Z,4.17
2019-05-18T16:43:56.208Z,4.17
2019-05-18T16:46:25.889Z,3.67
2019-05-18T16:48:55.596Z,3.00
2019-05-18T16:51:25.115Z,5.30
2019-05-18T16:53:55.041Z,3.37
2019-05-18T16:56:34.850Z,2.73
2019-05-18T16:58:55.879Z,4.33
2019-05-18T17:01:26.067Z,3.17
2019-05-18T17:03:55.809Z,6.70
2019-05-18T17:06:25.434Z,8.87
2019-05-18T17:08:54.913Z,3.60
2019-05-18T17:11:28.065Z,3.30
2019-05-18T17:13:57.657Z,2.90
2019-05-18T17:16:27.483Z,5.17
2019-05-18T17:18:57.097Z,3.47
2019-05-18T17:21:26.813Z,3.27
2019-05-18T17:23:56.500Z,4.60
2019-05-18T17:26:25.987Z,3.20
2019-05-18T17:28:55.774Z,3.03
2019-05-18T17:31:25.760Z,5.60
2019-05-18T17:33:55.513Z,2.77
2019-05-18T17:36:27.933Z,4.50
2019-05-18T17:38:57.422Z,2.53
2019-05-18T17:41:27.182Z,3.50
2019-05-18T17:43:56.742Z,2.83
2019-05-18T17:46:26.264Z,2.60
2019-05-18T17:48:56.238Z,4.13
2019-05-18T17:51:26.049Z,2.70
2019-05-18T17:53:55.626Z,5.87
2019-05-18T17:56:25.294Z,3.07
2019-05-18T17:58:54.905Z,4.27
2019-05-18T18:01:24.452Z,6.97
2019-05-18T18:03:54.917Z,6.23
2019-05-18T18:06:24.460Z,5.60
2019-05-18T18:08:54.759Z,7.70
2019-05-18T18:11:24.383Z,10.37
2019-05-18T18:13:54.158Z,4.20
2019-05-18T18:16:23.764Z,4.50
2019-05-18T18:18:54.068Z,6.47
2019-05-18T18:22:30.311Z,4.70
2019-05-18T18:25:03.555Z,8.57
2019-05-18T18:27:37.180Z,4.57
2019-05-18T18:30:10.945Z,10.07
2019-05-18T18:32:40.476Z,9.30
2019-05-18T18:35:10.949Z,8.87
2019-05-18T18:37:40.604Z,12.37
2019-05-18T18:40:10.483Z,9.50
2019-05-18T18:42:40.036Z,7.93
2019-05-18T18:45:10.412Z,6.67
2019-05-18T18:47:39.956Z,9.30
2019-05-18T18:50:10.266Z,7.27
2019-05-18T18:52:40.047Z,11.40
2019-05-18T18:55:10.032Z,12.30
2019-05-18T18:57:41.789Z,11.87
2019-05-18T19:00:11.599Z,11.80
2019-05-18T19:02:47.040Z,11.60
2019-05-18T19:05:17.339Z,7.13
2019-05-18T19:07:47.016Z,10.30
2019-05-18T19:10:18.395Z,8.67
2019-05-18T19:12:47.964Z,9.63
2019-05-18T19:15:18.380Z,10.63
2019-05-18T19:17:48.033Z,9.63
2019-05-18T19:20:18.388Z,9.97
2019-05-18T19:22:47.965Z,12.17
2019-05-18T19:25:17.674Z,12.70
2019-05-18T19:27:54.636Z,12.33
2019-05-18T19:30:18.768Z,9.03
2019-05-18T19:32:52.338Z,15.20
2019-05-18T19:35:22.318Z,12.33
2019-05-18T19:37:51.995Z,8.77
2019-05-18T19:40:21.623Z,9.43
2019-05-18T19:43:10.453Z,9.07
2019-05-18T19:45:40.071Z,12.17
2019-05-18T19:48:09.816Z,10.00
2019-05-18T19:50:39.449Z,16.43
2019-05-18T19:53:09.068Z,9.47
2019-05-18T19:55:38.943Z,9.13
2019-05-18T19:58:09.444Z,9.57
2019-05-18T20:00:39.485Z,12.83
2019-05-18T20:03:09.359Z,15.40
2019-05-18T20:05:39.065Z,10.73
2019-05-18T20:08:09.347Z,11.93
2019-05-18T20:10:38.877Z,11.43
2019-05-18T20:13:08.553Z,9.17
2019-05-18T20:15:39.032Z,10.93
2019-05-18T20:18:08.919Z,10.53
2019-05-18T20:20:38.549Z,14.73
2019-05-18T20:23:08.777Z,13.90
2019-05-18T20:25:38.454Z,16.93
2019-05-18T20:28:21.417Z,13.13
2019-05-18T20:30:39.761Z,13.23
2019-05-18T20:33:09.310Z,13.60
2019-05-18T20:35:38.954Z,14.63
2019-05-18T20:38:08.623Z,15.27
2019-05-18T20:40:38.267Z,14.87
2019-05-18T20:43:07.924Z,13.57
2019-05-18T20:45:37.768Z,14.53
2019-05-18T20:48:07.745Z,16.10
2019-05-18T20:50:37.716Z,13.70
2019-05-18T20:53:08.815Z,20.00
2019-05-18T20:55:39.263Z,18.70
2019-05-18T20:58:09.008Z,16.07
2019-05-18T21:00:38.913Z,24.03
2019-05-18T21:03:08.676Z,35.53
2019-05-18T21:05:38.256Z,28.77
2019-05-18T21:08:08.161Z,32.90
2019-05-18T21:10:37.840Z,28.63
2019-05-18T21:13:07.613Z,26.87
2019-05-18T21:15:37.160Z,25.67
2019-05-18T21:18:06.690Z,27.63
2019-05-18T21:20:36.484Z,29.40
2019-05-18T21:23:06.191Z,33.83
2019-05-18T21:25:35.797Z,24.00
2019-05-18T21:28:05.424Z,23.37
2019-05-18T21:30:34.973Z,18.77
2019-05-18T21:33:04.730Z,15.00
2019-05-18T21:35:34.397Z,17.03
2019-05-18T21:38:03.924Z,11.63
2019-05-18T21:40:33.567Z,12.67
2019-05-18T21:43:03.112Z,16.73
2019-05-18T21:45:32.830Z,19.80
2019-05-18T21:48:02.617Z,22.60
2019-05-18T21:50:32.312Z,37.20
2019-05-18T21:53:02.169Z,39.97
2019-05-18T21:55:31.708Z,34.97
2019-05-18T21:58:01.464Z,26.30
2019-05-18T22:00:37.272Z,17.50
2019-05-18T22:03:06.995Z,14.57
2019-05-18T22:05:36.646Z,15.40
2019-05-18T22:08:06.141Z,16.17
2019-05-18T22:10:35.682Z,18.07
2019-05-18T22:13:05.266Z,17.90
2019-05-18T22:15:35.023Z,22.33
2019-05-18T22:18:04.534Z,16.17
2019-05-18T22:20:35.292Z,19.53
2019-05-18T22:23:05.472Z,18.87
2019-05-18T22:25:35.623Z,20.50
2019-05-18T22:28:17.538Z,17.77
2019-05-18T22:30:47.040Z,19.70
2019-05-18T22:33:16.605Z,17.73
2019-05-18T22:35:46.110Z,21.57
2019-05-18T22:38:15.628Z,19.23
2019-05-18T22:40:45.130Z,15.57
2019-05-18T22:43:14.742Z,18.30
2019-05-18T22:45:44.284Z,15.87
2019-05-18T22:48:13.793Z,20.83
2019-05-18T22:50:43.305Z,17.50
2019-05-18T22:53:12.857Z,16.13
2019-05-18T22:55:42.364Z,15.43
2019-05-18T22:58:11.946Z,16.27
2019-05-18T23:00:42.819Z,17.03
2019-05-18T23:03:12.527Z,16.20
2019-05-18T23:05:42.011Z,17.60
2019-05-18T23:08:11.744Z,21.97
2019-05-18T23:10:41.309Z,16.03
2019-05-18T23:13:10.867Z,15.17
2019-05-18T23:15:40.499Z,17.97
2019-05-18T23:18:11.582Z,16.10
2019-05-18T23:20:41.065Z,13.90
2019-05-18T23:23:10.774Z,10.53
2019-05-18T23:25:40.376Z,17.27
2019-05-18T23:28:10.240Z,15.67
2019-05-18T23:30:39.730Z,15.13
2019-05-18T23:33:09.376Z,13.63
2019-05-18T23:35:39.011Z,12.27
2019-05-18T23:38:08.758Z,13.27
2019-05-18T23:40:38.670Z,16.07
2019-05-18T23:43:08.246Z,12.80
2019-05-18T23:45:37.800Z,13.83
2019-05-18T23:48:07.727Z,16.87
2019-05-18T23:50:37.380Z,15.90
2019-05-18T23:53:07.027Z,13.43
2019-05-18T23:55:36.628Z,13.37
2019-05-18T23:58:06.338Z,13.70
